createdAt,value
2023-03-06T05:07:26.659Z,45.50
2023-03-06T05:09:54.045Z,50.33
2023-03-06T05:12:21.301Z,48.45
2023-03-06T05:14:48.565Z,48.92
2023-03-06T05:17:15.818Z,49.50
2023-03-06T05:19:43.162Z,58.33
2023-03-06T05:22:10.586Z,51.08
2023-03-06T05:24:38.428Z,47.08
2023-03-06T05:27:05.667Z,55.20
2023-03-06T05:29:33.574Z,62.72
2023-03-06T05:32:01.041Z,50.60
2023-03-06T05:34:28.413Z,52.75
2023-03-06T05:36:55.690Z,44.97
2023-03-06T05:39:22.996Z,46.05
2023-03-06T05:41:50.237Z,47.78
2023-03-06T05:44:17.507Z,52.70
2023-03-06T05:46:44.768Z,53.30
2023-03-06T05:49:12.462Z,56.78
2023-03-06T05:51:39.751Z,52.63
2023-03-06T05:54:07.099Z,49.70
2023-03-06T05:56:35.126Z,49.13
2023-03-06T05:59:02.653Z,49.53
2023-03-06T06:01:30.305Z,46.10
2023-03-06T06:03:58.139Z,51.58
2023-03-06T06:06:25.471Z,51.30
2023-03-06T06:08:52.692Z,50.33
2023-03-06T06:11:21.094Z,52.13
2023-03-06T06:13:49.067Z,48.75
2023-03-06T06:16:17.000Z,63.13
2023-03-06T06:18:45.692Z,64.63
2023-03-06T06:21:16.853Z,50.13
2023-03-06T06:23:44.641Z,60.80
2023-03-06T06:26:12.097Z,41.75
2023-03-06T06:28:39.745Z,50.13
2023-03-06T06:31:09.398Z,51.58
2023-03-06T06:33:36.660Z,59.55
2023-03-06T06:36:05.190Z,51.50
2023-03-06T06:38:32.924Z,48.30
2023-03-06T06:41:35.683Z,48.08
2023-03-06T06:43:50.742Z,47.05
2023-03-06T06:46:49.993Z,46.15
2023-03-06T06:49:06.298Z,52.13
2023-03-06T06:51:34.674Z,51.35
2023-03-06T06:54:02.096Z,52.45
2023-03-06T06:56:29.366Z,52.67
2023-03-06T06:59:15.375Z,57.72
2023-03-06T07:01:44.464Z,53.83
2023-03-06T07:04:14.782Z,47.50
2023-03-06T07:06:42.443Z,57.42
2023-03-06T07:09:09.812Z,59.08
2023-03-06T07:11:38.078Z,51.83
2023-03-06T07:14:05.711Z,49.30
2023-03-06T07:16:33.622Z,53.25
2023-03-06T07:19:01.407Z,48.75
2023-03-06T07:21:28.885Z,56.38
2023-03-06T07:23:57.506Z,50.15
2023-03-06T07:26:26.541Z,43.75
2023-03-06T07:28:54.981Z,51.38
2023-03-06T07:31:26.155Z,48.00
2023-03-06T07:33:55.115Z,45.97
2023-03-06T07:36:23.390Z,54.80
2023-03-06T07:38:50.649Z,59.15
2023-03-06T07:41:21.845Z,52.75
2023-03-06T07:43:50.162Z,54.63
2023-03-06T07:46:18.107Z,51.75
2023-03-06T07:48:45.411Z,47.97
2023-03-06T07:51:18.465Z,52.72
2023-03-06T07:53:46.833Z,56.10
2023-03-06T07:56:14.752Z,54.80
2023-03-06T07:58:45.067Z,52.03
2023-03-06T08:01:23.553Z,58.83
2023-03-06T08:03:51.455Z,51.60
2023-03-06T08:06:22.313Z,55.97
2023-03-06T08:08:51.093Z,49.63
2023-03-06T08:11:21.260Z,54.88
2023-03-06T08:13:49.678Z,52.45
2023-03-06T08:16:19.188Z,47.75
2023-03-06T08:18:46.777Z,58.40
2023-03-06T08:21:42.312Z,56.72
2023-03-06T08:24:10.326Z,53.55
2023-03-06T08:26:37.695Z,50.47
2023-03-06T08:29:06.038Z,61.53
2023-03-06T08:31:36.764Z,50.83
2023-03-06T08:34:07.474Z,56.97
2023-03-06T08:36:35.137Z,54.15
2023-03-06T08:39:03.010Z,48.88
2023-03-06T08:41:30.905Z,54.33
2023-03-06T08:43:58.370Z,49.90
2023-03-06T08:46:28.252Z,57.53
2023-03-06T08:48:57.320Z,42.88
2023-03-06T08:51:25.995Z,48.78
2023-03-06T08:53:53.517Z,49.83
2023-03-06T08:56:23.793Z,50.05
2023-03-06T08:58:52.581Z,59.22
2023-03-06T09:01:22.663Z,47.00
2023-03-06T09:03:50.958Z,55.33
2023-03-06T09:06:18.397Z,56.60
2023-03-06T09:08:46.409Z,45.80
2023-03-06T09:11:15.498Z,51.13
2023-03-06T09:13:44.035Z,48.80
2023-03-06T09:16:13.310Z,48.28
2023-03-06T09:18:40.891Z,54.22
2023-03-06T09:21:10.068Z,53.72
2023-03-06T09:23:39.494Z,46.45
2023-03-06T09:26:08.362Z,43.42
2023-03-06T09:28:36.753Z,39.08
2023-03-06T09:31:18.178Z,50.58
2023-03-06T09:33:46.920Z,47.58
2023-03-06T09:36:20.408Z,46.88
2023-03-06T09:38:49.900Z,46.60
2023-03-06T09:41:31.259Z,38.53
2023-03-06T09:44:05.182Z,43.65
2023-03-06T09:46:41.774Z,52.33
2023-03-06T09:49:51.486Z,47.10
2023-03-06T09:52:36.438Z,46.40
2023-03-06T09:55:17.761Z,41.10
2023-03-06T09:57:54.707Z,42.85
2023-03-06T10:00:31.443Z,43.20
2023-03-06T10:03:19.728Z,33.65
2023-03-06T10:05:54.424Z,51.30
2023-03-06T10:08:38.049Z,37.40
2023-03-06T10:11:11.109Z,47.38
2023-03-06T10:13:53.953Z,41.70
2023-03-06T10:16:32.563Z,46.25
2023-03-06T10:19:04.461Z,41.90
2023-03-06T10:21:54.925Z,38.08
2023-03-06T10:24:59.748Z,39.97
2023-03-06T10:27:27.527Z,33.40
2023-03-06T10:30:22.663Z,31.90
2023-03-06T10:33:07.522Z,38.53
2023-03-06T10:35:49.712Z,36.17
2023-03-06T10:38:37.353Z,38.22
2023-03-06T10:41:13.515Z,36.15
2023-03-06T10:44:02.994Z,36.97
2023-03-06T10:46:42.473Z,34.25
2023-03-06T10:49:32.124Z,37.45
2023-03-06T10:52:14.372Z,41.75
2023-03-06T10:54:44.580Z,40.40
2023-03-06T10:57:31.137Z,30.42
2023-03-06T11:00:23.049Z,35.38
2023-03-06T11:03:03.953Z,29.83
2023-03-06T11:05:31.470Z,26.15
2023-03-06T11:08:00.519Z,30.20
2023-03-06T11:10:30.732Z,32.03
2023-03-06T11:13:17.205Z,33.50
2023-03-06T11:16:06.801Z,39.78
2023-03-06T11:18:39.580Z,32.80
2023-03-06T11:21:29.151Z,28.55
2023-03-06T11:24:04.105Z,40.50
2023-03-06T11:27:00.052Z,38.15
2023-03-06T11:29:43.263Z,38.47
2023-03-06T11:32:21.262Z,33.50
2023-03-06T11:34:57.677Z,36.50
2023-03-06T11:37:36.360Z,34.35
2023-03-06T11:40:17.698Z,36.80
2023-03-06T11:42:52.506Z,40.55
2023-03-06T11:45:23.314Z,46.17
2023-03-06T11:48:06.858Z,43.13
2023-03-06T11:50:42.569Z,38.38
2023-03-06T11:53:14.058Z,40.20
2023-03-06T11:56:07.438Z,33.60
2023-03-06T11:58:58.120Z,35.47
2023-03-06T12:01:47.292Z,35.35
2023-03-06T12:04:45.459Z,40.22
2023-03-06T12:07:44.265Z,35.22
2023-03-06T12:10:18.217Z,35.63
2023-03-06T12:13:09.979Z,34.95
2023-03-06T12:15:59.035Z,43.90
2023-03-06T12:18:52.642Z,31.02
2023-03-06T12:21:26.045Z,39.40
2023-03-06T12:23:55.018Z,35.38
2023-03-06T12:26:50.491Z,37.80
2023-03-06T12:29:33.658Z,39.28
2023-03-06T12:32:23.156Z,35.75
2023-03-06T12:35:05.896Z,39.25
2023-03-06T12:37:48.946Z,48.60
2023-03-06T12:40:25.328Z,34.97
2023-03-06T12:43:10.282Z,35.05
2023-03-06T12:45:38.392Z,36.70
2023-03-06T12:48:15.423Z,39.15
2023-03-06T12:50:44.540Z,39.63
2023-03-06T12:53:23.303Z,32.65
2023-03-06T12:55:51.771Z,46.67
2023-03-06T12:58:29.964Z,30.80
2023-03-06T13:01:09.487Z,35.55
2023-03-06T13:04:05.015Z,31.35
2023-03-06T13:07:10.368Z,36.75
2023-03-06T13:09:56.554Z,38.00
2023-03-06T13:12:45.308Z,34.10
2023-03-06T13:15:33.922Z,39.53
2023-03-06T13:18:01.599Z,32.35
2023-03-06T13:20:37.046Z,35.03
2023-03-06T13:23:32.942Z,34.95
2023-03-06T13:26:05.572Z,44.03
2023-03-06T13:28:39.957Z,37.55
2023-03-06T13:31:18.141Z,28.98
2023-03-06T13:33:56.696Z,33.80
2023-03-06T13:36:27.778Z,32.45
2023-03-06T13:39:13.414Z,34.45
2023-03-06T13:41:58.044Z,39.22
2023-03-06T13:44:25.479Z,31.02
2023-03-06T13:47:39.180Z,33.03
2023-03-06T13:50:38.496Z,31.70
2023-03-06T13:53:33.150Z,35.42
2023-03-06T13:56:47.398Z,37.40
2023-03-06T13:59:23.844Z,37.45
2023-03-06T14:02:18.533Z,31.27
2023-03-06T14:04:53.574Z,30.98
2023-03-06T14:07:25.690Z,32.53
2023-03-06T14:10:13.682Z,30.60
2023-03-06T14:12:48.894Z,26.42
2023-03-06T14:15:16.174Z,32.17
2023-03-06T14:18:05.342Z,32.88
2023-03-06T14:20:42.356Z,36.75
2023-03-06T14:23:28.438Z,28.02
2023-03-06T14:26:19.314Z,30.67
2023-03-06T14:29:02.329Z,36.20
2023-03-06T14:31:43.229Z,29.83
2023-03-06T14:34:25.488Z,28.00
2023-03-06T14:36:55.342Z,26.85
2023-03-06T14:39:36.273Z,29.27
2023-03-06T14:42:25.905Z,26.95
2023-03-06T14:45:23.788Z,24.25
2023-03-06T14:47:53.096Z,29.33
2023-03-06T14:50:32.473Z,27.60
2023-03-06T14:53:06.722Z,26.42
2023-03-06T14:55:35.867Z,24.85
2023-03-06T14:58:19.927Z,28.73
2023-03-06T15:00:50.848Z,30.70
2023-03-06T15:03:24.118Z,27.67
2023-03-06T15:05:52.257Z,88.97
2023-03-06T15:08:26.847Z,40.33
2023-03-06T15:10:59.675Z,32.63
2023-03-06T15:13:29.650Z,32.03
2023-03-06T15:16:05.176Z,27.98
2023-03-06T15:18:39.051Z,30.15
2023-03-06T15:21:08.458Z,32.15
2023-03-06T15:23:36.857Z,33.45
2023-03-06T15:26:20.983Z,29.50
2023-03-06T15:29:23.039Z,29.70
2023-03-06T15:31:50.606Z,25.38
2023-03-06T15:34:26.162Z,27.33
2023-03-06T15:36:56.965Z,31.08
2023-03-06T15:39:37.849Z,27.77
2023-03-06T15:42:19.727Z,39.17
2023-03-06T15:44:53.219Z,38.80
2023-03-06T15:47:21.800Z,32.42
2023-03-06T15:49:52.087Z,30.70
2023-03-06T15:52:21.418Z,34.60
2023-03-06T15:54:49.689Z,26.38
2023-03-06T15:57:25.092Z,29.25
2023-03-06T15:59:53.825Z,29.95
2023-03-06T16:02:24.138Z,31.67
2023-03-06T16:04:52.556Z,32.13
2023-03-06T16:07:20.592Z,25.05
2023-03-06T16:09:48.276Z,29.88
2023-03-06T16:12:18.704Z,30.48
2023-03-06T16:14:48.838Z,26.00
2023-03-06T16:17:17.851Z,28.65
2023-03-06T16:19:45.388Z,37.58
2023-03-06T16:22:12.787Z,26.50
2023-03-06T16:24:40.168Z,30.75
2023-03-06T16:27:23.393Z,34.95
2023-03-06T16:29:51.225Z,34.88
2023-03-06T16:32:18.505Z,27.30
2023-03-06T16:34:45.780Z,34.95
2023-03-06T16:37:14.190Z,45.50
2023-03-06T16:39:41.597Z,35.63
2023-03-06T16:42:10.160Z,35.33
2023-03-06T16:44:37.931Z,38.53
2023-03-06T16:47:05.384Z,41.15
2023-03-06T16:49:33.136Z,38.92
2023-03-06T16:52:00.984Z,41.90
2023-03-06T16:54:28.293Z,36.08
2023-03-06T16:56:56.207Z,38.03
2023-03-06T16:59:24.880Z,39.08
2023-03-06T17:01:52.452Z,33.47
2023-03-06T17:04:19.668Z,40.33
2023-03-06T17:06:47.345Z,34.50
2023-03-06T17:09:14.639Z,39.47
2023-03-06T17:11:46.654Z,39.28
2023-03-06T17:14:14.461Z,36.35
2023-03-06T17:16:42.592Z,39.53
2023-03-06T17:19:14.396Z,40.80
2023-03-06T17:21:43.440Z,44.40
2023-03-06T17:24:11.191Z,41.85
2023-03-06T17:26:38.900Z,43.58
2023-03-06T17:29:07.164Z,48.40
2023-03-06T17:31:34.944Z,52.72
2023-03-06T17:34:02.220Z,46.05
2023-03-06T17:36:31.539Z,49.08
2023-03-06T17:39:00.416Z,46.95
2023-03-06T17:41:28.883Z,49.05
2023-03-06T17:43:56.408Z,46.53
2023-03-06T17:46:24.366Z,41.67
2023-03-06T17:48:51.758Z,40.97
2023-03-06T17:51:19.150Z,47.13
2023-03-06T17:53:46.603Z,57.25
2023-03-06T17:56:14.185Z,55.83
2023-03-06T17:58:42.379Z,49.40
2023-03-06T18:01:16.633Z,53.63
2023-03-06T18:03:46.023Z,67.18
2023-03-06T18:06:13.985Z,60.63
2023-03-06T18:08:41.816Z,72.10
2023-03-06T18:11:11.174Z,79.78
2023-03-06T18:13:41.045Z,70.00
2023-03-06T18:16:11.152Z,72.38
2023-03-06T18:18:38.944Z,70.85
2023-03-06T18:21:09.067Z,119.90
2023-03-06T18:23:39.617Z,85.28
2023-03-06T18:26:27.142Z,74.55
2023-03-06T18:28:57.607Z,74.80
2023-03-06T18:31:28.094Z,71.13
2023-03-06T18:33:58.278Z,66.53
2023-03-06T18:36:28.775Z,54.58
2023-03-06T18:38:57.080Z,57.97
2023-03-06T18:41:24.672Z,68.75
2023-03-06T18:43:57.793Z,67.30
2023-03-06T18:46:28.954Z,72.60
2023-03-06T18:48:56.448Z,63.33
2023-03-06T18:51:24.106Z,68.75
2023-03-06T18:53:51.920Z,69.80
2023-03-06T18:56:22.263Z,59.05
2023-03-06T18:58:53.796Z,65.72
2023-03-06T19:01:22.613Z,71.38
2023-03-06T19:03:50.415Z,69.43
2023-03-06T19:06:18.471Z,68.03
2023-03-06T19:08:46.311Z,73.70
2023-03-06T19:11:15.867Z,72.78
2023-03-06T19:13:44.078Z,86.15
2023-03-06T19:16:20.748Z,81.05
2023-03-06T19:18:48.347Z,90.97
2023-03-06T19:21:21.060Z,81.53
2023-03-06T19:23:49.193Z,70.53
2023-03-06T19:26:18.862Z,146.77
2023-03-06T19:28:47.718Z,70.68
2023-03-06T19:31:21.071Z,51.90
2023-03-06T19:33:49.757Z,74.20
2023-03-06T19:36:18.386Z,94.97
2023-03-06T19:38:52.480Z,126.78
2023-03-06T19:41:20.356Z,89.85
2023-03-06T19:43:52.275Z,106.43
2023-03-06T19:48:48.348Z,80.72
2023-03-06T19:51:16.046Z,78.38
2023-03-06T19:53:43.404Z,87.50
2023-03-06T19:56:19.088Z,84.13
2023-03-06T19:58:46.408Z,75.60
2023-03-06T20:01:19.244Z,91.78
2023-03-06T20:03:47.008Z,84.28
2023-03-06T20:06:17.405Z,98.55
2023-03-06T20:08:49.312Z,82.43
2023-03-06T20:11:23.378Z,84.25
2023-03-06T20:13:51.889Z,86.03
2023-03-06T20:16:20.296Z,95.50
2023-03-06T20:18:48.348Z,95.65
2023-03-06T20:21:15.972Z,91.38
2023-03-06T20:23:43.405Z,80.82
2023-03-06T20:26:13.674Z,82.85
2023-03-06T20:28:42.485Z,86.63
2023-03-06T20:31:16.666Z,92.75
2023-03-06T20:33:45.566Z,90.38
2023-03-06T20:36:19.727Z,89.32
2023-03-06T20:38:48.124Z,88.55
2023-03-06T20:41:17.535Z,80.82
2023-03-06T20:43:45.257Z,84.40
2023-03-06T20:46:14.035Z,109.72
2023-03-06T20:48:42.725Z,94.63
2023-03-06T20:51:23.302Z,88.97
2023-03-06T20:53:55.448Z,85.85
2023-03-06T20:56:26.494Z,80.57
2023-03-06T20:58:54.316Z,79.57
2023-03-06T21:01:33.867Z,73.55
2023-03-06T21:04:04.468Z,79.45
2023-03-06T21:06:32.249Z,89.25
2023-03-06T21:09:00.687Z,86.90
2023-03-06T21:11:28.745Z,64.32
2023-03-06T21:13:56.855Z,67.22
2023-03-06T21:16:26.046Z,62.58
2023-03-06T21:18:58.253Z,52.58
2023-03-06T21:21:32.829Z,56.13
2023-03-06T21:24:02.038Z,64.70
2023-03-06T21:26:33.738Z,61.17
2023-03-06T21:31:30.547Z,52.17
2023-03-06T21:33:58.985Z,61.10
2023-03-06T21:36:27.601Z,58.50
2023-03-06T21:38:55.791Z,51.92
2023-03-06T21:41:27.276Z,58.47
2023-03-06T21:43:59.307Z,60.90
2023-03-06T21:46:27.642Z,64.68
2023-03-06T21:48:55.488Z,58.55
2023-03-06T21:51:24.185Z,56.08
2023-03-06T21:53:53.180Z,54.90
2023-03-06T21:56:23.149Z,60.55
2023-03-06T21:58:51.280Z,65.50
2023-03-06T22:01:22.413Z,62.65
2023-03-06T22:03:50.615Z,63.65
2023-03-06T22:06:21.035Z,72.70
2023-03-06T22:08:49.018Z,56.42
2023-03-06T22:11:19.236Z,61.75
2023-03-06T22:13:47.966Z,61.58
2023-03-06T22:16:16.870Z,59.92
2023-03-06T22:18:46.241Z,51.45
2023-03-06T22:21:16.183Z,51.60
2023-03-06T22:23:43.614Z,43.53
2023-03-06T22:26:13.634Z,54.95
2023-03-06T22:28:42.249Z,52.28
2023-03-06T22:31:13.269Z,48.15
2023-03-06T22:33:41.170Z,50.40
2023-03-06T22:36:12.590Z,49.13
2023-03-06T22:38:42.423Z,46.78
2023-03-06T22:41:10.909Z,58.42
2023-03-06T22:43:38.592Z,52.80
2023-03-06T22:46:12.008Z,51.45
2023-03-06T22:48:40.109Z,57.63
2023-03-06T22:51:16.253Z,56.45
2023-03-06T22:53:44.785Z,55.88
2023-03-06T22:56:15.421Z,62.13
2023-03-06T22:58:44.772Z,49.55
2023-03-06T23:01:15.213Z,53.65
2023-03-06T23:03:47.931Z,56.63
2023-03-06T23:06:22.332Z,55.33
2023-03-06T23:08:55.711Z,53.78
2023-03-06T23:11:24.422Z,53.90
2023-03-06T23:14:12.524Z,54.33
2023-03-06T23:16:58.189Z,56.03
2023-03-06T23:19:44.804Z,56.40
2023-03-06T23:22:30.874Z,56.92
2023-03-06T23:25:17.095Z,51.97
2023-03-06T23:27:44.899Z,53.00
2023-03-06T23:30:13.258Z,54.38
2023-03-06T23:32:40.653Z,50.45
2023-03-06T23:35:08.300Z,60.83
2023-03-06T23:37:36.018Z,59.90
2023-03-06T23:40:06.511Z,62.45
2023-03-06T23:42:33.882Z,63.83
2023-03-06T23:45:01.441Z,61.53
2023-03-06T23:47:33.494Z,68.95
2023-03-06T23:50:00.845Z,68.40
2023-03-06T23:52:28.115Z,70.20
2023-03-06T23:54:55.431Z,54.72
2023-03-06T23:57:23.078Z,64.40
2023-03-06T23:59:50.315Z,55.67
